| time (UTC) | temp C | wind direction | speed KPH | gust KPH | rain 1hr cm | rain 24hr cm | rain mn cm | humidity % | barometer mb |
| 20260831001603 | 28 | 173 | 6.4 | 11.3 | 0.00 | 0.00 | 0.00 | 64 | 1017.2 |
| 20260831000104 | 28 | 180 | 3.2 | 6.4 | 0.00 | 0.00 | 0.00 | 64 | 1017.1 |
| 20260830234612 | 29 | 204 | 4.8 | 9.7 | 0.00 | 0.00 | 0.00 | 63 | 1017.0 |
| 20260830233108 | 30 | 201 | 8.0 | 12.9 | 0.00 | 0.00 | 0.00 | 62 | 1016.9 |
| 20260830231608 | 30 | 206 | 4.8 | 12.9 | 0.00 | 0.00 | 0.00 | 61 | 1017.0 |
| 20260830230106 | 30 | 199 | 3.2 | 11.3 | 0.00 | 0.00 | 0.00 | 61 | 1016.9 |
| 20260830224619 | 30 | 194 | 8.0 | 19.3 | 0.00 | 0.00 | 0.00 | 61 | 1017.0 |
| 20260830223106 | 30 | 202 | 8.0 | 16.1 | 0.00 | 0.00 | 0.00 | 58 | 1016.9 |
| 20260830221601 | 30 | 212 | 9.7 | 17.7 | 0.00 | 0.00 | 0.00 | 58 | 1017.0 |
| 20260830220110 | 31 | 195 | 6.4 | 19.3 | 0.00 | 0.00 | 0.00 | 58 | 1017.0 |
| 20260830214604 | 31 | 219 | 9.7 | 17.7 | 0.00 | 0.00 | 0.00 | 55 | 1017.4 |
| 20260830213109 | 31 | 215 | 8.0 | 17.7 | 0.00 | 0.00 | 0.00 | 54 | 1017.6 |
| 20260830211606 | 31 | 247 | 8.0 | 19.3 | 0.00 | 0.00 | 0.00 | 55 | 1017.6 |
| 20260830210104 | 31 | 202 | 6.4 | 14.5 | 0.00 | 0.00 | 0.00 | 55 | 1017.7 |
| 20260830204618 | 31 | 227 | 6.4 | 16.1 | 0.00 | 0.00 | 0.00 | 55 | 1017.7 |
| 20260830203109 | 30 | 279 | 12.9 | 17.7 | 0.00 | 0.00 | 0.00 | 55 | 1017.8 |
| 20260830201631 | 31 | 211 | 4.8 | 14.5 | 0.00 | 0.00 | 0.00 | 56 | 1018.1 |
| 20260830200104 | 31 | 286 | 6.4 | 16.1 | 0.00 | 0.00 | 0.00 | 57 | 1018.2 |
| 20260830194604 | 31 | 230 | 11.3 | 19.3 | 0.00 | 0.00 | 0.00 | 55 | 1018.3 |
| 20260830193109 | 31 | 229 | 9.7 | 17.7 | 0.00 | 0.00 | 0.00 | 55 | 1018.6 |
| 20260830191631 | 31 | 270 | 3.2 | 11.3 | 0.00 | 0.00 | 0.00 | 57 | 1018.8 |
| 20260830190114 | 30 | 236 | 4.8 | 17.7 | 0.00 | 0.00 | 0.00 | 60 | 1019.1 |
| 20260830184609 | 30 | 246 | 9.7 | 19.3 | 0.00 | 0.00 | 0.00 | 57 | 1019.4 |
| 20260830183108 | 30 | 270 | 6.4 | 20.9 | 0.00 | 0.00 | 0.00 | 59 | 1019.6 |
| 20260830181602 | 30 | 298 | 6.4 | 16.1 | 0.00 | 0.00 | 0.00 | 61 | 1019.7 |
| 20260830180108 | 30 | 246 | 6.4 | 24.1 | 0.00 | 0.00 | 0.00 | 60 | 1019.8 |
| 20260830174610 | 30 | 278 | 11.3 | 22.5 | 0.00 | 0.00 | 0.00 | 62 | 1019.8 |
| 20260830173109 | 30 | 256 | 9.7 | 22.5 | 0.00 | 0.00 | 0.00 | 61 | 1020.2 |
| 20260830171605 | 30 | 286 | 9.7 | 19.3 | 0.00 | 0.00 | 0.00 | 61 | 1020.2 |
| 20260830170100 | 28 | 189 | 8.0 | 16.1 | 0.00 | 0.00 | 0.00 | 67 | 1020.2 |
| 20260830164608 | 28 | 207 | 8.0 | 12.9 | 0.00 | 0.00 | 0.00 | 70 | 1020.4 |
| 20260830163105 | 28 | 175 | 6.4 | 14.5 | 0.00 | 0.00 | 0.00 | 71 | 1020.4 |
| 20260830161611 | 28 | 171 | 4.8 | 12.9 | 0.00 | 0.00 | 0.00 | 70 | 1020.5 |
| 20260830160105 | 28 | 0 | 3.2 | 8.0 | 0.00 | 0.00 | 0.00 | 71 | 1020.3 |
| 20260830154610 | 27 | 243 | 4.8 | 12.9 | 0.00 | 0.00 | 0.00 | 73 | 1020.3 |
| 20260830153107 | 27 | 238 | 4.8 | 12.9 | 0.00 | 0.00 | 0.00 | 74 | 1020.2 |
| 20260830151601 | 26 | 163 | 6.4 | 11.3 | 0.00 | 0.00 | 0.00 | 75 | 1020.1 |
| 20260830150107 | 26 | 232 | 4.8 | 11.3 | 0.00 | 0.00 | 0.00 | 76 | 1019.9 |
| 20260830144613 | 25 | 213 | 6.4 | 12.9 | 0.00 | 0.00 | 0.00 | 80 | 1019.8 |
| 20260830143100 | 24 | 192 | 6.4 | 14.5 | 0.00 | 0.00 | 0.00 | 82 | 1019.5 |
| 20260830141604 | 23 | 236 | 4.8 | 11.3 | 0.00 | 0.00 | 0.00 | 83 | 1019.5 |
| 20260830140108 | 22 | 180 | 6.4 | 12.9 | 0.00 | 0.00 | 0.00 | 84 | 1019.3 |
| 20260830134606 | 22 | 227 | 4.8 | 9.7 | 0.00 | 0.00 | 0.00 | 86 | 1019.2 |
| 20260830133108 | 22 | 165 | 4.8 | 11.3 | 0.00 | 0.00 | 0.00 | 85 | 1019.1 |
| 20260830131607 | 22 | 160 | 0.0 | 6.4 | 0.00 | 0.00 | 0.00 | 87 | 1019.3 |
| 20260830130117 | 21 | 148 | 3.2 | 6.4 | 0.00 | 0.00 | 0.00 | 87 | 1019.4 |
| 20260830124559 | 21 | 146 | 3.2 | 8.0 | 0.00 | 0.00 | 0.00 | 87 | 1019.3 |
| 20260830123105 | 20 | 134 | 4.8 | 8.0 | 0.00 | 0.00 | 0.00 | 88 | 1019.1 |
| 20260830121601 | 20 | 137 | 4.8 | 8.0 | 0.00 | 0.00 | 0.00 | 88 | 1018.9 |
| 20260830120120 | 20 | 130 | 4.8 | 9.7 | 0.00 | 0.00 | 0.00 | 89 | 1018.9 |
| 20260830114606 | 20 | 117 | 4.8 | 9.7 | 0.00 | 0.00 | 0.00 | 89 | 1018.9 |
| 20260830113102 | 20 | 119 | 6.4 | 11.3 | 0.00 | 0.00 | 0.00 | 89 | 1018.7 |
| 20260830111605 | 20 | 123 | 6.4 | 9.7 | 0.00 | 0.00 | 0.00 | 89 | 1018.7 |
| 20260830110109 | 20 | 119 | 3.2 | 6.4 | 0.00 | 0.00 | 0.00 | 89 | 1018.8 |
| 20260830104606 | 20 | 117 | 6.4 | 9.7 | 0.00 | 0.00 | 0.00 | 90 | 1018.7 |
| 20260830103100 | 20 | 125 | 4.8 | 6.4 | 0.00 | 0.00 | 0.00 | 88 | 1018.6 |
| 20260830101606 | 21 | 117 | 4.8 | 6.4 | 0.00 | 0.00 | 0.00 | 86 | 1018.5 |
| 20260830100107 | 20 | 108 | 4.8 | 11.3 | 0.00 | 0.00 | 0.00 | 87 | 1018.6 |
| 20260830094600 | 20 | 108 | 8.0 | 11.3 | 0.00 | 0.00 | 0.00 | 90 | 1018.4 |
| 20260830093104 | 20 | 113 | 8.0 | 11.3 | 0.00 | 0.00 | 0.00 | 92 | 1018.5 |
| 20260830091607 | 20 | 110 | 4.8 | 6.4 | 0.00 | 0.00 | 0.00 | 91 | 1018.6 |
| 20260830090100 | 20 | 110 | 3.2 | 6.4 | 0.00 | 0.00 | 0.00 | 91 | 1018.4 |
| 20260830084611 | 20 | 109 | 6.4 | 9.7 | 0.00 | 0.00 | 0.00 | 91 | 1018.5 |
| 20260830083111 | 20 | 105 | 3.2 | 4.8 | 0.00 | 0.00 | 0.00 | 90 | 1018.7 |
| 20260830081607 | 20 | 105 | 3.2 | 6.4 | 0.00 | 0.00 | 0.00 | 89 | 1018.8 |
| 20260830080059 | 21 | 105 | 4.8 | 9.7 | 0.00 | 0.00 | 0.00 | 89 | 1018.7 |
| 20260830074605 | 21 | 103 | 4.8 | 6.4 | 0.00 | 0.00 | 0.00 | 88 | 1018.8 |
| 20260830073104 | 21 | 103 | 4.8 | 6.4 | 0.00 | 0.00 | 0.00 | 90 | 1018.9 |
| 20260830071610 | 21 | 103 | 3.2 | 6.4 | 0.00 | 0.00 | 0.00 | 88 | 1018.9 |
| 20260830070112 | 21 | 103 | 6.4 | 9.7 | 0.00 | 0.00 | 0.00 | 86 | 1019.0 |
| 20260830064602 | 21 | 102 | 4.8 | 9.7 | 0.00 | 0.00 | 0.00 | 86 | 1019.1 |
| 20260830063111 | 22 | 102 | 3.2 | 6.4 | 0.00 | 0.00 | 0.00 | 83 | 1019.3 |
| 20260830061618 | 22 | 102 | 3.2 | 6.4 | 0.00 | 0.00 | 0.00 | 82 | 1019.3 |
| 20260830060109 | 22 | 101 | 4.8 | 6.4 | 0.00 | 0.00 | 0.00 | 81 | 1019.3 |
| 20260830054605 | 22 | 99 | 3.2 | 6.4 | 0.00 | 0.00 | 0.00 | 84 | 1019.4 |
| 20260830053100 | 21 | 98 | 3.2 | 6.4 | 0.00 | 0.00 | 0.00 | 87 | 1019.4 |
| 20260830051603 | 21 | 98 | 1.6 | 4.8 | 0.00 | 0.00 | 0.00 | 86 | 1019.3 |
| 20260830050107 | 22 | 98 | 1.6 | 4.8 | 0.00 | 0.00 | 0.00 | 84 | 1019.3 |
| 20260830044612 | 22 | 98 | 3.2 | 4.8 | 0.00 | 0.00 | 0.00 | 84 | 1019.4 |
| 20260830043106 | 22 | 98 | 4.8 | 9.7 | 0.00 | 0.00 | 0.00 | 83 | 1019.2 |
| 20260830041609 | 22 | 103 | 6.4 | 9.7 | 0.00 | 0.00 | 0.00 | 81 | 1019.3 |
| 20260830040105 | 22 | 98 | 4.8 | 9.7 | 0.00 | 0.00 | 0.00 | 80 | 1019.2 |
| 20260830034601 | 23 | 98 | 4.8 | 9.7 | 0.00 | 0.00 | 0.00 | 78 | 1019.2 |
| 20260830033100 | 23 | 87 | 4.8 | 9.7 | 0.00 | 0.00 | 0.00 | 75 | 1019.2 |
| 20260830031605 | 23 | 92 | 4.8 | 9.7 | 0.00 | 0.00 | 0.00 | 75 | 1019.2 |
| 20260830030108 | 23 | 93 | 6.4 | 11.3 | 0.00 | 0.00 | 0.00 | 79 | 1019.0 |
| 20260830024608 | 23 | 96 | 8.0 | 11.3 | 0.00 | 0.00 | 0.00 | 80 | 1018.7 |
| 20260830023117 | 24 | 103 | 9.7 | 11.3 | 0.00 | 0.00 | 0.00 | 76 | 1018.7 |
| 20260830021607 | 24 | 94 | 6.4 | 12.9 | 0.00 | 0.00 | 0.00 | 74 | 1018.8 |
| 20260830020109 | 25 | 92 | 9.7 | 11.3 | 0.00 | 0.00 | 0.00 | 75 | 1018.9 |
| 20260830014603 | 25 | 92 | 8.0 | 11.3 | 0.00 | 0.00 | 0.00 | 74 | 1018.7 |
| 20260830013106 | 25 | 88 | 8.0 | 11.3 | 0.00 | 0.00 | 0.00 | 74 | 1018.6 |
| 20260830011608 | 25 | 85 | 6.4 | 9.7 | 0.00 | 0.00 | 0.00 | 74 | 1018.3 |
| 20260830010111 | 25 | 71 | 6.4 | 11.3 | 0.00 | 0.00 | 0.00 | 69 | 1018.2 |
| 20260830004609 | 26 | 69 | 6.4 | 8.0 | 0.00 | 0.00 | 0.00 | 64 | 1018.2 |
| 20260830003107 | 27 | 185 | 1.6 | 4.8 | 0.00 | 0.00 | 0.00 | 57 | 1018.3 |